sensor_id;sensor_type;location;lat;lon;timestamp;P1;durP1;ratioP1;P2;durP2;ratioP2
55647;SDS011;45266;48.756;9.246;2022-07-12T00:01:01;5.35;;;3.65;;
55647;SDS011;45266;48.756;9.246;2022-07-12T00:02:03;4.28;;;3.72;;
55647;SDS011;45266;48.756;9.246;2022-07-12T00:03:05;4.97;;;4.32;;
55647;SDS011;45266;48.756;9.246;2022-07-12T00:04:07;3.90;;;3.58;;
55647;SDS011;45266;48.756;9.246;2022-07-12T00:05:09;3.97;;;3.58;;
55647;SDS011;45266;48.756;9.246;2022-07-12T00:06:11;4.40;;;4.00;;
55647;SDS011;45266;48.756;9.246;2022-07-12T00:07:13;4.40;;;4.00;;
55647;SDS011;45266;48.756;9.246;2022-07-12T00:08:15;3.80;;;3.47;;
55647;SDS011;45266;48.756;9.246;2022-07-12T00:09:17;5.07;;;4.03;;
55647;SDS011;45266;48.756;9.246;2022-07-12T00:10:19;4.45;;;4.00;;
55647;SDS011;45266;48.756;9.246;2022-07-12T00:11:21;5.95;;;3.90;;
55647;SDS011;45266;48.756;9.246;2022-07-12T00:12:23;4.38;;;3.92;;
55647;SDS011;45266;48.756;9.246;2022-07-12T00:13:24;4.15;;;3.75;;
55647;SDS011;45266;48.756;9.246;2022-07-12T00:14:26;4.68;;;4.20;;
55647;SDS011;45266;48.756;9.246;2022-07-12T00:15:28;4.55;;;4.15;;
55647;SDS011;45266;48.756;9.246;2022-07-12T00:16:30;8.15;;;6.28;;
55647;SDS011;45266;48.756;9.246;2022-07-12T00:17:33;9.38;;;5.43;;
55647;SDS011;45266;48.756;9.246;2022-07-12T00:18:35;5.10;;;4.60;;
55647;SDS011;45266;48.756;9.246;2022-07-12T00:19:37;4.68;;;4.00;;
55647;SDS011;45266;48.756;9.246;2022-07-12T00:20:38;5.13;;;4.35;;
55647;SDS011;45266;48.756;9.246;2022-07-12T00:21:40;4.65;;;3.78;;
55647;SDS011;45266;48.756;9.246;2022-07-12T00:22:42;5.13;;;4.20;;
55647;SDS011;45266;48.756;9.246;2022-07-12T00:23:45;4.13;;;3.78;;
55647;SDS011;45266;48.756;9.246;2022-07-12T00:24:47;4.10;;;3.70;;
55647;SDS011;45266;48.756;9.246;2022-07-12T00:25:49;4.50;;;4.05;;
55647;SDS011;45266;48.756;9.246;2022-07-12T00:26:51;3.90;;;3.50;;
55647;SDS011;45266;48.756;9.246;2022-07-12T00:27:53;4.65;;;3.88;;
55647;SDS011;45266;48.756;9.246;2022-07-12T00:28:55;4.20;;;3.80;;
55647;SDS011;45266;48.756;9.246;2022-07-12T00:29:58;4.13;;;3.78;;
55647;SDS011;45266;48.756;9.246;2022-07-12T00:31:00;4.22;;;3.83;;
55647;SDS011;45266;48.756;9.246;2022-07-12T00:32:02;4.47;;;3.85;;
55647;SDS011;45266;48.756;9.246;2022-07-12T00:33:04;4.65;;;4.13;;
55647;SDS011;45266;48.756;9.246;2022-07-12T00:34:06;5.15;;;3.85;;
55647;SDS011;45266;48.756;9.246;2022-07-12T00:35:08;4.30;;;3.90;;
55647;SDS011;45266;48.756;9.246;2022-07-12T00:36:10;5.45;;;3.70;;
55647;SDS011;45266;48.756;9.246;2022-07-12T00:37:12;4.30;;;3.75;;
55647;SDS011;45266;48.756;9.246;2022-07-12T00:38:13;4.38;;;3.88;;
55647;SDS011;45266;48.756;9.246;2022-07-12T00:39:15;5.53;;;3.90;;
55647;SDS011;45266;48.756;9.246;2022-07-12T00:40:17;4.68;;;4.05;;
55647;SDS011;45266;48.756;9.246;2022-07-12T00:41:19;4.13;;;3.78;;
55647;SDS011;45266;48.756;9.246;2022-07-12T00:42:21;4.75;;;3.80;;
55647;SDS011;45266;48.756;9.246;2022-07-12T00:43:22;4.65;;;3.92;;
55647;SDS011;45266;48.756;9.246;2022-07-12T00:44:24;4.68;;;4.10;;
55647;SDS011;45266;48.756;9.246;2022-07-12T00:45:27;4.53;;;4.13;;
55647;SDS011;45266;48.756;9.246;2022-07-12T00:46:29;5.43;;;3.80;;
55647;SDS011;45266;48.756;9.246;2022-07-12T00:48:45;5.15;;;4.20;;
55647;SDS011;45266;48.756;9.246;2022-07-12T00:49:46;4.28;;;3.83;;
55647;SDS011;45266;48.756;9.246;2022-07-12T00:50:48;4.00;;;3.60;;
55647;SDS011;45266;48.756;9.246;2022-07-12T00:51:50;4.40;;;3.95;;
55647;SDS011;45266;48.756;9.246;2022-07-12T00:52:53;3.90;;;3.60;;
55647;SDS011;45266;48.756;9.246;2022-07-12T00:53:56;4.38;;;3.97;;
55647;SDS011;45266;48.756;9.246;2022-07-12T00:55:00;4.57;;;3.88;;
55647;SDS011;45266;48.756;9.246;2022-07-12T00:56:02;4.25;;;3.85;;
55647;SDS011;45266;48.756;9.246;2022-07-12T00:57:06;4.35;;;3.90;;
55647;SDS011;45266;48.756;9.246;2022-07-12T00:58:07;4.80;;;4.30;;
55647;SDS011;45266;48.756;9.246;2022-07-12T00:59:09;4.57;;;3.92;;
55647;SDS011;45266;48.756;9.246;2022-07-12T01:00:12;4.40;;;4.00;;
55647;SDS011;45266;48.756;9.246;2022-07-12T01:01:16;4.53;;;4.13;;
55647;SDS011;45266;48.756;9.246;2022-07-12T01:02:18;4.10;;;3.70;;
55647;SDS011;45266;48.756;9.246;2022-07-12T01:03:20;4.20;;;3.80;;
55647;SDS011;45266;48.756;9.246;2022-07-12T01:04:22;6.03;;;4.15;;
55647;SDS011;45266;48.756;9.246;2022-07-12T01:05:26;3.95;;;3.55;;
55647;SDS011;45266;48.756;9.246;2022-07-12T01:06:29;4.95;;;3.80;;
55647;SDS011;45266;48.756;9.246;2022-07-12T01:07:33;4.20;;;3.85;;
55647;SDS011;45266;48.756;9.246;2022-07-12T01:08:35;4.43;;;3.42;;
55647;SDS011;45266;48.756;9.246;2022-07-12T01:09:38;5.20;;;4.07;;
55647;SDS011;45266;48.756;9.246;2022-07-12T01:10:40;4.45;;;4.05;;
55647;SDS011;45266;48.756;9.246;2022-07-12T01:11:44;4.50;;;4.10;;
55647;SDS011;45266;48.756;9.246;2022-07-12T01:12:46;4.00;;;3.67;;
55647;SDS011;45266;48.756;9.246;2022-07-12T01:13:49;4.13;;;3.72;;
55647;SDS011;45266;48.756;9.246;2022-07-12T01:14:52;5.72;;;3.70;;
55647;SDS011;45266;48.756;9.246;2022-07-12T01:15:54;4.05;;;3.65;;
55647;SDS011;45266;48.756;9.246;2022-07-12T01:16:57;5.28;;;4.00;;
55647;SDS011;45266;48.756;9.246;2022-07-12T01:17:59;4.50;;;4.10;;
55647;SDS011;45266;48.756;9.246;2022-07-12T01:19:04;4.72;;;3.88;;
55647;SDS011;45266;48.756;9.246;2022-07-12T01:20:08;4.28;;;3.83;;
55647;SDS011;45266;48.756;9.246;2022-07-12T01:21:10;4.10;;;3.70;;
55647;SDS011;45266;48.756;9.246;2022-07-12T01:22:25;4.18;;;3.70;;
55647;SDS011;45266;48.756;9.246;2022-07-12T01:23:37;3.80;;;3.50;;
55647;SDS011;45266;48.756;9.246;2022-07-12T01:24:40;8.23;;;4.22;;
55647;SDS011;45266;48.756;9.246;2022-07-12T01:25:42;6.07;;;3.65;;
55647;SDS011;45266;48.756;9.246;2022-07-12T01:26:45;4.05;;;3.63;;
55647;SDS011;45266;48.756;9.246;2022-07-12T01:27:48;5.28;;;3.70;;
55647;SDS011;45266;48.756;9.246;2022-07-12T01:28:50;4.50;;;3.55;;
55647;SDS011;45266;48.756;9.246;2022-07-12T01:29:53;4.57;;;3.50;;
55647;SDS011;45266;48.756;9.246;2022-07-12T01:30:56;6.53;;;3.63;;
55647;SDS011;45266;48.756;9.246;2022-07-12T01:32:01;4.30;;;3.40;;
55647;SDS011;45266;48.756;9.246;2022-07-12T01:33:23;3.72;;;3.42;;
55647;SDS011;45266;48.756;9.246;2022-07-12T01:34:28;5.28;;;3.60;;
55647;SDS011;45266;48.756;9.246;2022-07-12T01:35:30;3.90;;;3.60;;
55647;SDS011;45266;48.756;9.246;2022-07-12T01:36:32;4.18;;;3.67;;
55647;SDS011;45266;48.756;9.246;2022-07-12T01:37:35;3.65;;;3.35;;
55647;SDS011;45266;48.756;9.246;2022-07-12T01:38:38;3.65;;;3.03;;
55647;SDS011;45266;48.756;9.246;2022-07-12T01:39:40;5.47;;;3.30;;
55647;SDS011;45266;48.756;9.246;2022-07-12T01:40:42;3.47;;;3.17;;
55647;SDS011;45266;48.756;9.246;2022-07-12T01:41:44;3.78;;;3.47;;
55647;SDS011;45266;48.756;9.246;2022-07-12T01:42:46;5.72;;;3.33;;
55647;SDS011;45266;48.756;9.246;2022-07-12T01:43:52;3.60;;;3.15;;
55647;SDS011;45266;48.756;9.246;2022-07-12T01:44:55;3.58;;;3.20;;
55647;SDS011;45266;48.756;9.246;2022-07-12T01:45:57;3.53;;;2.80;;
55647;SDS011;45266;48.756;9.246;2022-07-12T01:46:59;3.70;;;3.40;;
55647;SDS011;45266;48.756;9.246;2022-07-12T01:48:01;3.50;;;3.20;;
55647;SDS011;45266;48.756;9.246;2022-07-12T01:49:05;3.30;;;3.00;;
55647;SDS011;45266;48.756;9.246;2022-07-12T01:50:07;3.50;;;3.20;;
55647;SDS011;45266;48.756;9.246;2022-07-12T01:51:11;3.45;;;3.15;;
55647;SDS011;45266;48.756;9.246;2022-07-12T01:52:13;3.45;;;3.15;;
55647;SDS011;45266;48.756;9.246;2022-07-12T01:53:16;3.58;;;2.60;;
55647;SDS011;45266;48.756;9.246;2022-07-12T01:54:17;3.33;;;3.03;;
55647;SDS011;45266;48.756;9.246;2022-07-12T01:55:19;3.15;;;2.88;;
55647;SDS011;45266;48.756;9.246;2022-07-12T01:56:21;3.80;;;3.08;;
55647;SDS011;45266;48.756;9.246;2022-07-12T01:57:23;3.40;;;3.10;;
55647;SDS011;45266;48.756;9.246;2022-07-12T01:58:26;3.38;;;3.03;;
55647;SDS011;45266;48.756;9.246;2022-07-12T01:59:28;4.47;;;3.28;;
55647;SDS011;45266;48.756;9.246;2022-07-12T02:00:31;4.72;;;3.20;;
55647;SDS011;45266;48.756;9.246;2022-07-12T02:01:32;3.00;;;2.70;;
55647;SDS011;45266;48.756;9.246;2022-07-12T02:02:37;4.38;;;3.42;;
55647;SDS011;45266;48.756;9.246;2022-07-12T02:03:40;3.63;;;3.05;;
55647;SDS011;45266;48.756;9.246;2022-07-12T02:04:42;3.70;;;2.90;;
55647;SDS011;45266;48.756;9.246;2022-07-12T02:05:44;3.38;;;3.03;;
55647;SDS011;45266;48.756;9.246;2022-07-12T02:06:47;3.47;;;2.78;;
55647;SDS011;45266;48.756;9.246;2022-07-12T02:07:50;2.90;;;2.70;;
55647;SDS011;45266;48.756;9.246;2022-07-12T02:08:52;3.80;;;2.97;;
55647;SDS011;45266;48.756;9.246;2022-07-12T02:09:54;2.90;;;2.60;;
55647;SDS011;45266;48.756;9.246;2022-07-12T02:10:56;4.28;;;2.80;;
55647;SDS011;45266;48.756;9.246;2022-07-12T02:11:58;3.15;;;2.75;;
55647;SDS011;45266;48.756;9.246;2022-07-12T02:13:03;4.05;;;3.08;;
55647;SDS011;45266;48.756;9.246;2022-07-12T02:14:05;3.03;;;2.72;;
55647;SDS011;45266;48.756;9.246;2022-07-12T02:15:08;2.78;;;2.50;;
55647;SDS011;45266;48.756;9.246;2022-07-12T02:16:10;3.47;;;3.15;;
55647;SDS011;45266;48.756;9.246;2022-07-12T02:17:12;3.33;;;2.88;;
55647;SDS011;45266;48.756;9.246;2022-07-12T02:18:14;3.17;;;2.88;;
55647;SDS011;45266;48.756;9.246;2022-07-12T02:19:16;2.70;;;2.50;;
55647;SDS011;45266;48.756;9.246;2022-07-12T02:20:17;2.88;;;2.60;;
55647;SDS011;45266;48.756;9.246;2022-07-12T02:21:20;3.83;;;2.70;;
55647;SDS011;45266;48.756;9.246;2022-07-12T02:22:21;3.67;;;2.67;;
55647;SDS011;45266;48.756;9.246;2022-07-12T02:23:23;2.65;;;2.45;;
55647;SDS011;45266;48.756;9.246;2022-07-12T02:24:25;5.95;;;3.00;;
55647;SDS011;45266;48.756;9.246;2022-07-12T02:25:27;2.60;;;2.40;;
55647;SDS011;45266;48.756;9.246;2022-07-12T02:26:30;3.10;;;2.60;;
55647;SDS011;45266;48.756;9.246;2022-07-12T02:27:34;3.47;;;2.70;;
55647;SDS011;45266;48.756;9.246;2022-07-12T02:28:36;2.50;;;2.30;;
55647;SDS011;45266;48.756;9.246;2022-07-12T02:29:38;2.67;;;2.47;;
55647;SDS011;45266;48.756;9.246;2022-07-12T02:30:42;2.42;;;2.22;;
55647;SDS011;45266;48.756;9.246;2022-07-12T02:31:44;3.03;;;2.72;;
55647;SDS011;45266;48.756;9.246;2022-07-12T02:32:46;3.25;;;2.55;;
55647;SDS011;45266;48.756;9.246;2022-07-12T02:33:48;2.80;;;2.60;;
55647;SDS011;45266;48.756;9.246;2022-07-12T02:34:50;2.78;;;2.50;;
55647;SDS011;45266;48.756;9.246;2022-07-12T02:35:52;2.58;;;2.38;;
55647;SDS011;45266;48.756;9.246;2022-07-12T02:36:54;3.40;;;3.03;;
55647;SDS011;45266;48.756;9.246;2022-07-12T02:37:55;3.58;;;2.53;;
55647;SDS011;45266;48.756;9.246;2022-07-12T02:38:57;4.05;;;3.13;;
55647;SDS011;45266;48.756;9.246;2022-07-12T02:40:03;2.42;;;2.22;;
55647;SDS011;45266;48.756;9.246;2022-07-12T02:41:25;2.65;;;2.45;;
55647;SDS011;45266;48.756;9.246;2022-07-12T02:42:26;3.42;;;2.60;;
55647;SDS011;45266;48.756;9.246;2022-07-12T02:43:29;3.85;;;2.60;;
55647;SDS011;45266;48.756;9.246;2022-07-12T02:44:32;3.85;;;2.50;;
55647;SDS011;45266;48.756;9.246;2022-07-12T02:45:34;3.47;;;2.53;;
55647;SDS011;45266;48.756;9.246;2022-07-12T02:46:35;2.50;;;2.30;;
55647;SDS011;45266;48.756;9.246;2022-07-12T02:47:40;2.63;;;2.42;;
55647;SDS011;45266;48.756;9.246;2022-07-12T02:48:43;2.40;;;2.20;;
55647;SDS011;45266;48.756;9.246;2022-07-12T02:49:44;3.78;;;2.50;;
55647;SDS011;45266;48.756;9.246;2022-07-12T02:50:46;2.80;;;2.60;;
55647;SDS011;45266;48.756;9.246;2022-07-12T02:51:48;2.20;;;2.10;;
55647;SDS011;45266;48.756;9.246;2022-07-12T02:52:50;2.50;;;2.30;;
55647;SDS011;45266;48.756;9.246;2022-07-12T02:53:52;2.47;;;2.28;;
55647;SDS011;45266;48.756;9.246;2022-07-12T02:54:54;2.58;;;2.38;;
55647;SDS011;45266;48.756;9.246;2022-07-12T02:55:55;3.00;;;2.45;;
55647;SDS011;45266;48.756;9.246;2022-07-12T02:56:57;2.35;;;2.08;;
55647;SDS011;45266;48.756;9.246;2022-07-12T02:57:59;3.53;;;2.60;;
55647;SDS011;45266;48.756;9.246;2022-07-12T02:59:01;2.60;;;2.40;;
55647;SDS011;45266;48.756;9.246;2022-07-12T03:00:03;3.97;;;2.33;;
55647;SDS011;45266;48.756;9.246;2022-07-12T03:01:08;2.42;;;2.22;;
55647;SDS011;45266;48.756;9.246;2022-07-12T03:02:10;2.40;;;2.20;;
55647;SDS011;45266;48.756;9.246;2022-07-12T03:03:12;2.17;;;1.98;;
55647;SDS011;45266;48.756;9.246;2022-07-12T03:04:15;3.03;;;2.00;;
55647;SDS011;45266;48.756;9.246;2022-07-12T03:05:17;2.42;;;2.22;;
55647;SDS011;45266;48.756;9.246;2022-07-12T03:06:19;2.65;;;2.08;;
55647;SDS011;45266;48.756;9.246;2022-07-12T03:07:20;2.42;;;2.22;;
55647;SDS011;45266;48.756;9.246;2022-07-12T03:08:23;3.05;;;2.15;;
55647;SDS011;45266;48.756;9.246;2022-07-12T03:09:25;2.53;;;1.98;;
55647;SDS011;45266;48.756;9.246;2022-07-12T03:10:27;3.47;;;1.98;;
55647;SDS011;45266;48.756;9.246;2022-07-12T03:11:29;2.10;;;1.90;;
55647;SDS011;45266;48.756;9.246;2022-07-12T03:12:30;2.30;;;2.10;;
55647;SDS011;45266;48.756;9.246;2022-07-12T03:13:32;2.30;;;2.10;;
55647;SDS011;45266;48.756;9.246;2022-07-12T03:14:34;3.88;;;2.33;;
55647;SDS011;45266;48.756;9.246;2022-07-12T03:15:36;2.42;;;2.03;;
55647;SDS011;45266;48.756;9.246;2022-07-12T03:16:39;2.17;;;2.00;;
55647;SDS011;45266;48.756;9.246;2022-07-12T03:17:41;2.20;;;2.00;;
55647;SDS011;45266;48.756;9.246;2022-07-12T03:18:43;2.50;;;2.30;;
55647;SDS011;45266;48.756;9.246;2022-07-12T03:19:45;2.63;;;2.35;;
55647;SDS011;45266;48.756;9.246;2022-07-12T03:20:47;2.35;;;2.20;;
55647;SDS011;45266;48.756;9.246;2022-07-12T03:21:50;2.72;;;2.53;;
55647;SDS011;45266;48.756;9.246;2022-07-12T03:22:51;2.63;;;1.90;;
55647;SDS011;45266;48.756;9.246;2022-07-12T03:23:55;2.03;;;1.90;;
55647;SDS011;45266;48.756;9.246;2022-07-12T03:24:57;3.42;;;2.28;;
55647;SDS011;45266;48.756;9.246;2022-07-12T03:25:59;2.28;;;2.08;;
55647;SDS011;45266;48.756;9.246;2022-07-12T03:27:00;3.17;;;2.40;;
55647;SDS011;45266;48.756;9.246;2022-07-12T03:28:02;4.30;;;2.47;;
55647;SDS011;45266;48.756;9.246;2022-07-12T03:29:04;2.33;;;2.13;;
55647;SDS011;45266;48.756;9.246;2022-07-12T03:30:07;2.88;;;2.67;;
55647;SDS011;45266;48.756;9.246;2022-07-12T03:31:09;2.50;;;2.30;;
55647;SDS011;45266;48.756;9.246;2022-07-12T03:32:11;2.25;;;2.05;;
55647;SDS011;45266;48.756;9.246;2022-07-12T03:33:13;2.60;;;2.30;;
55647;SDS011;45266;48.756;9.246;2022-07-12T03:34:15;2.55;;;2.35;;
55647;SDS011;45266;48.756;9.246;2022-07-12T03:35:17;2.72;;;2.53;;
55647;SDS011;45266;48.756;9.246;2022-07-12T03:36:19;2.33;;;2.13;;
55647;SDS011;45266;48.756;9.246;2022-07-12T03:37:21;2.90;;;2.40;;
55647;SDS011;45266;48.756;9.246;2022-07-12T03:38:23;3.00;;;1.90;;
55647;SDS011;45266;48.756;9.246;2022-07-12T03:39:25;3.42;;;2.35;;
55647;SDS011;45266;48.756;9.246;2022-07-12T03:40:33;2.35;;;2.15;;
55647;SDS011;45266;48.756;9.246;2022-07-12T03:41:35;2.22;;;2.03;;
55647;SDS011;45266;48.756;9.246;2022-07-12T03:42:37;2.30;;;2.10;;
55647;SDS011;45266;48.756;9.246;2022-07-12T03:43:39;2.47;;;2.28;;
55647;SDS011;45266;48.756;9.246;2022-07-12T03:44:41;3.03;;;2.25;;
55647;SDS011;45266;48.756;9.246;2022-07-12T03:45:43;2.40;;;2.20;;
55647;SDS011;45266;48.756;9.246;2022-07-12T03:46:46;2.33;;;2.10;;
55647;SDS011;45266;48.756;9.246;2022-07-12T03:47:48;2.42;;;2.22;;
55647;SDS011;45266;48.756;9.246;2022-07-12T03:48:50;2.08;;;1.88;;
55647;SDS011;45266;48.756;9.246;2022-07-12T03:49:52;2.40;;;2.20;;
55647;SDS011;45266;48.756;9.246;2022-07-12T03:50:55;2.65;;;2.10;;
55647;SDS011;45266;48.756;9.246;2022-07-12T03:51:57;2.22;;;2.03;;
55647;SDS011;45266;48.756;9.246;2022-07-12T03:52:59;3.05;;;2.40;;
55647;SDS011;45266;48.756;9.246;2022-07-12T03:54:00;2.25;;;2.05;;
55647;SDS011;45266;48.756;9.246;2022-07-12T03:55:02;2.70;;;2.42;;
55647;SDS011;45266;48.756;9.246;2022-07-12T03:56:05;3.22;;;2.20;;
55647;SDS011;45266;48.756;9.246;2022-07-12T03:57:07;2.85;;;2.20;;
55647;SDS011;45266;48.756;9.246;2022-07-12T03:58:15;2.75;;;1.98;;
55647;SDS011;45266;48.756;9.246;2022-07-12T03:59:16;3.33;;;2.25;;
55647;SDS011;45266;48.756;9.246;2022-07-12T04:00:18;2.65;;;2.45;;
55647;SDS011;45266;48.756;9.246;2022-07-12T04:01:20;2.25;;;2.05;;
55647;SDS011;45266;48.756;9.246;2022-07-12T04:02:22;2.75;;;2.10;;
55647;SDS011;45266;48.756;9.246;2022-07-12T04:03:24;2.85;;;2.20;;
55647;SDS011;45266;48.756;9.246;2022-07-12T04:04:26;2.40;;;2.20;;
55647;SDS011;45266;48.756;9.246;2022-07-12T04:05:28;2.28;;;2.08;;
55647;SDS011;45266;48.756;9.246;2022-07-12T04:06:29;2.33;;;2.13;;
55647;SDS011;45266;48.756;9.246;2022-07-12T04:07:31;2.45;;;1.95;;
55647;SDS011;45266;48.756;9.246;2022-07-12T04:08:33;3.20;;;2.17;;
55647;SDS011;45266;48.756;9.246;2022-07-12T04:09:35;2.60;;;2.15;;
55647;SDS011;45266;48.756;9.246;2022-07-12T04:10:37;2.30;;;2.10;;
55647;SDS011;45266;48.756;9.246;2022-07-12T04:11:39;2.67;;;2.00;;
55647;SDS011;45266;48.756;9.246;2022-07-12T04:12:41;2.70;;;2.15;;
55647;SDS011;45266;48.756;9.246;2022-07-12T04:13:43;3.67;;;2.20;;
55647;SDS011;45266;48.756;9.246;2022-07-12T04:14:44;2.50;;;2.05;;
55647;SDS011;45266;48.756;9.246;2022-07-12T04:15:46;2.30;;;2.10;;
55647;SDS011;45266;48.756;9.246;2022-07-12T04:16:48;2.42;;;2.22;;
55647;SDS011;45266;48.756;9.246;2022-07-12T04:17:50;2.42;;;2.22;;
55647;SDS011;45266;48.756;9.246;2022-07-12T04:18:52;2.95;;;2.30;;
55647;SDS011;45266;48.756;9.246;2022-07-12T04:19:55;2.67;;;2.47;;
55647;SDS011;45266;48.756;9.246;2022-07-12T04:20:57;2.70;;;2.50;;
55647;SDS011;45266;48.756;9.246;2022-07-12T04:21:59;2.30;;;2.10;;
55647;SDS011;45266;48.756;9.246;2022-07-12T04:23:01;3.00;;;2.20;;
55647;SDS011;45266;48.756;9.246;2022-07-12T04:24:05;2.30;;;2.10;;
55647;SDS011;45266;48.756;9.246;2022-07-12T04:25:07;3.85;;;2.45;;
55647;SDS011;45266;48.756;9.246;2022-07-12T04:26:10;2.72;;;2.28;;
55647;SDS011;45266;48.756;9.246;2022-07-12T04:27:12;2.38;;;2.05;;
55647;SDS011;45266;48.756;9.246;2022-07-12T04:28:14;2.10;;;1.95;;
55647;SDS011;45266;48.756;9.246;2022-07-12T04:29:17;2.78;;;1.90;;
55647;SDS011;45266;48.756;9.246;2022-07-12T04:30:19;3.63;;;2.40;;
55647;SDS011;45266;48.756;9.246;2022-07-12T04:31:21;2.20;;;2.00;;
55647;SDS011;45266;48.756;9.246;2022-07-12T04:32:23;2.55;;;2.35;;
55647;SDS011;45266;48.756;9.246;2022-07-12T04:33:24;2.88;;;2.60;;
55647;SDS011;45266;48.756;9.246;2022-07-12T04:34:26;3.08;;;2.45;;
55647;SDS011;45266;48.756;9.246;2022-07-12T04:35:28;3.10;;;2.50;;
55647;SDS011;45266;48.756;9.246;2022-07-12T04:36:30;3.80;;;2.40;;
55647;SDS011;45266;48.756;9.246;2022-07-12T04:37:32;2.47;;;2.28;;
55647;SDS011;45266;48.756;9.246;2022-07-12T04:38:34;2.55;;;2.35;;
55647;SDS011;45266;48.756;9.246;2022-07-12T04:39:36;2.50;;;2.30;;
55647;SDS011;45266;48.756;9.246;2022-07-12T04:40:37;2.50;;;2.30;;
55647;SDS011;45266;48.756;9.246;2022-07-12T04:41:39;3.53;;;2.63;;
55647;SDS011;45266;48.756;9.246;2022-07-12T04:42:41;2.60;;;2.40;;
55647;SDS011;45266;48.756;9.246;2022-07-12T04:43:43;3.63;;;2.30;;
55647;SDS011;45266;48.756;9.246;2022-07-12T04:44:45;2.58;;;2.38;;
55647;SDS011;45266;48.756;9.246;2022-07-12T04:45:47;3.00;;;2.60;;
55647;SDS011;45266;48.756;9.246;2022-07-12T04:46:48;2.63;;;2.38;;
55647;SDS011;45266;48.756;9.246;2022-07-12T04:47:50;3.30;;;2.60;;
55647;SDS011;45266;48.756;9.246;2022-07-12T04:48:52;2.78;;;2.50;;
55647;SDS011;45266;48.756;9.246;2022-07-12T04:49:54;3.10;;;2.70;;
55647;SDS011;45266;48.756;9.246;2022-07-12T04:50:56;2.50;;;2.30;;
55647;SDS011;45266;48.756;9.246;2022-07-12T04:51:57;2.28;;;2.10;;
55647;SDS011;45266;48.756;9.246;2022-07-12T04:52:59;2.67;;;2.47;;
55647;SDS011;45266;48.756;9.246;2022-07-12T04:54:01;2.50;;;2.30;;
55647;SDS011;45266;48.756;9.246;2022-07-12T04:55:04;2.83;;;2.60;;
55647;SDS011;45266;48.756;9.246;2022-07-12T04:56:07;2.47;;;2.20;;
55647;SDS011;45266;48.756;9.246;2022-07-12T04:57:09;2.95;;;2.20;;
55647;SDS011;45266;48.756;9.246;2022-07-12T04:58:10;3.13;;;2.80;;
55647;SDS011;45266;48.756;9.246;2022-07-12T04:59:12;2.47;;;2.28;;
55647;SDS011;45266;48.756;9.246;2022-07-12T05:00:15;3.05;;;2.65;;
55647;SDS011;45266;48.756;9.246;2022-07-12T05:01:17;5.05;;;2.50;;
55647;SDS011;45266;48.756;9.246;2022-07-12T05:02:19;3.17;;;2.70;;
55647;SDS011;45266;48.756;9.246;2022-07-12T05:03:20;3.17;;;2.85;;
55647;SDS011;45266;48.756;9.246;2022-07-12T05:04:23;2.80;;;2.58;;
55647;SDS011;45266;48.756;9.246;2022-07-12T05:05:25;2.88;;;2.58;;
55647;SDS011;45266;48.756;9.246;2022-07-12T05:06:27;2.65;;;2.30;;
55647;SDS011;45266;48.756;9.246;2022-07-12T05:07:29;7.78;;;2.80;;
55647;SDS011;45266;48.756;9.246;2022-07-12T05:08:30;3.65;;;2.47;;
55647;SDS011;45266;48.756;9.246;2022-07-12T05:09:32;2.70;;;2.50;;
55647;SDS011;45266;48.756;9.246;2022-07-12T05:10:34;3.22;;;2.65;;
55647;SDS011;45266;48.756;9.246;2022-07-12T05:11:36;3.83;;;2.83;;
55647;SDS011;45266;48.756;9.246;2022-07-12T05:12:39;2.78;;;2.50;;
55647;SDS011;45266;48.756;9.246;2022-07-12T05:13:41;2.45;;;2.25;;
55647;SDS011;45266;48.756;9.246;2022-07-12T05:14:43;3.65;;;2.90;;
55647;SDS011;45266;48.756;9.246;2022-07-12T05:15:45;3.15;;;2.65;;
55647;SDS011;45266;48.756;9.246;2022-07-12T05:16:46;2.88;;;2.45;;
55647;SDS011;45266;48.756;9.246;2022-07-12T05:17:48;3.20;;;2.90;;
55647;SDS011;45266;48.756;9.246;2022-07-12T05:18:50;4.32;;;2.72;;
55647;SDS011;45266;48.756;9.246;2022-07-12T05:19:54;4.78;;;3.10;;
55647;SDS011;45266;48.756;9.246;2022-07-12T05:20:56;3.88;;;3.50;;
55647;SDS011;45266;48.756;9.246;2022-07-12T05:21:58;4.00;;;3.33;;
55647;SDS011;45266;48.756;9.246;2022-07-12T05:23:00;5.40;;;3.78;;
55647;SDS011;45266;48.756;9.246;2022-07-12T05:24:02;5.32;;;4.30;;
55647;SDS011;45266;48.756;9.246;2022-07-12T05:25:05;7.65;;;4.30;;
55647;SDS011;45266;48.756;9.246;2022-07-12T05:26:07;5.75;;;4.30;;
55647;SDS011;45266;48.756;9.246;2022-07-12T05:27:16;4.85;;;4.35;;
55647;SDS011;45266;48.756;9.246;2022-07-12T05:28:18;5.18;;;4.10;;
55647;SDS011;45266;48.756;9.246;2022-07-12T05:29:20;5.25;;;4.65;;
55647;SDS011;45266;48.756;9.246;2022-07-12T05:30:22;4.95;;;4.22;;
55647;SDS011;45266;48.756;9.246;2022-07-12T05:31:24;4.82;;;4.43;;
55647;SDS011;45266;48.756;9.246;2022-07-12T05:32:26;6.25;;;5.45;;
55647;SDS011;45266;48.756;9.246;2022-07-12T05:33:27;7.90;;;5.90;;
55647;SDS011;45266;48.756;9.246;2022-07-12T05:34:30;9.70;;;7.30;;
55647;SDS011;45266;48.756;9.246;2022-07-12T05:35:31;7.65;;;6.65;;
55647;SDS011;45266;48.756;9.246;2022-07-12T05:36:33;7.88;;;7.03;;
55647;SDS011;45266;48.756;9.246;2022-07-12T05:37:35;6.90;;;6.20;;
55647;SDS011;45266;48.756;9.246;2022-07-12T05:38:37;8.45;;;7.05;;
55647;SDS011;45266;48.756;9.246;2022-07-12T05:39:39;9.93;;;7.25;;
55647;SDS011;45266;48.756;9.246;2022-07-12T05:40:45;9.98;;;8.25;;
55647;SDS011;45266;48.756;9.246;2022-07-12T05:41:46;8.45;;;7.10;;
55647;SDS011;45266;48.756;9.246;2022-07-12T05:42:48;9.73;;;6.78;;
55647;SDS011;45266;48.756;9.246;2022-07-12T05:43:51;8.75;;;7.07;;
55647;SDS011;45266;48.756;9.246;2022-07-12T05:44:52;9.63;;;6.85;;
55647;SDS011;45266;48.756;9.246;2022-07-12T05:45:55;10.27;;;7.65;;
55647;SDS011;45266;48.756;9.246;2022-07-12T05:46:57;8.75;;;7.18;;
55647;SDS011;45266;48.756;9.246;2022-07-12T05:47:59;7.32;;;6.60;;
55647;SDS011;45266;48.756;9.246;2022-07-12T05:49:01;10.60;;;6.72;;
55647;SDS011;45266;48.756;9.246;2022-07-12T05:50:03;11.32;;;7.13;;
55647;SDS011;45266;48.756;9.246;2022-07-12T05:51:06;8.70;;;7.53;;
55647;SDS011;45266;48.756;9.246;2022-07-12T05:52:26;9.48;;;7.22;;
55647;SDS011;45266;48.756;9.246;2022-07-12T05:53:48;7.22;;;6.53;;
55647;SDS011;45266;48.756;9.246;2022-07-12T05:54:49;7.72;;;6.63;;
55647;SDS011;45266;48.756;9.246;2022-07-12T05:55:52;11.20;;;7.05;;
55647;SDS011;45266;48.756;9.246;2022-07-12T05:56:55;12.82;;;6.78;;
55647;SDS011;45266;48.756;9.246;2022-07-12T05:57:57;8.02;;;6.85;;
55647;SDS011;45266;48.756;9.246;2022-07-12T05:58:59;9.68;;;7.15;;
55647;SDS011;45266;48.756;9.246;2022-07-12T06:00:01;9.75;;;7.38;;
55647;SDS011;45266;48.756;9.246;2022-07-12T06:01:04;8.88;;;6.50;;
55647;SDS011;45266;48.756;9.246;2022-07-12T06:02:06;8.73;;;6.95;;
55647;SDS011;45266;48.756;9.246;2022-07-12T06:03:08;9.95;;;6.75;;
55647;SDS011;45266;48.756;9.246;2022-07-12T06:04:10;10.85;;;7.18;;
55647;SDS011;45266;48.756;9.246;2022-07-12T06:05:12;10.02;;;7.03;;
55647;SDS011;45266;48.756;9.246;2022-07-12T06:06:14;10.38;;;6.63;;
55647;SDS011;45266;48.756;9.246;2022-07-12T06:07:16;8.93;;;6.75;;
55647;SDS011;45266;48.756;9.246;2022-07-12T06:08:17;8.63;;;6.65;;
55647;SDS011;45266;48.756;9.246;2022-07-12T06:09:19;9.52;;;6.30;;
55647;SDS011;45266;48.756;9.246;2022-07-12T06:10:21;9.38;;;6.88;;
55647;SDS011;45266;48.756;9.246;2022-07-12T06:11:23;8.75;;;7.00;;
55647;SDS011;45266;48.756;9.246;2022-07-12T06:12:25;8.80;;;6.32;;
55647;SDS011;45266;48.756;9.246;2022-07-12T06:13:26;9.77;;;6.30;;
55647;SDS011;45266;48.756;9.246;2022-07-12T06:14:30;8.93;;;6.60;;
55647;SDS011;45266;48.756;9.246;2022-07-12T06:15:31;7.50;;;6.72;;
55647;SDS011;45266;48.756;9.246;2022-07-12T06:16:35;8.15;;;6.40;;
55647;SDS011;45266;48.756;9.246;2022-07-12T06:17:36;8.05;;;5.75;;
55647;SDS011;45266;48.756;9.246;2022-07-12T06:18:39;6.68;;;5.82;;